ADDS METAR Data INFO
IDs: Format: Raw Decoded Include TAF

Data at: 1834 UTC 16 Dec 2017

KTFP 161815Z AUTO 05008KT 10SM OVC021 14/10 A3009 RMK AO2 T01430098
KTFP 161755Z AUTO 04008KT 10SM OVC021 14/09 A3010 RMK AO2 T01420094
KTFP 161735Z AUTO 05010KT 10SM OVC023 14/09 A3010 RMK AO2 T01420090
KTFP 161715Z AUTO 06012G16KT 10SM OVC025 14/08 A3011 RMK AO2 T01410084
KTFP 161655Z AUTO 04009KT 10SM OVC025 14/07 A3012 RMK AO2 T01370073
KTFP 161635Z AUTO 04009KT 10SM OVC025 13/07 A3013 RMK AO2 T01330065
KTFP 161615Z AUTO 04008KT 10SM OVC027 13/06 A3015 RMK AO2 T01280063
KTFP 161555Z AUTO 03008KT 10SM OVC029 12/06 A3014 RMK AO2 T01240060
KTFP 161535Z AUTO 04009KT 10SM OVC029 12/06 A3015 RMK AO2 T01220063
KTFP 161515Z AUTO 03007KT 10SM OVC029 12/07 A3015 RMK AO2 T01190070
KTFP 161455Z AUTO 03007KT 10SM OVC029 12/07 A3015 RMK AO2 T01150071
KTFP 161435Z AUTO 03007KT 10SM OVC031 11/07 A3015 RMK AO2 T01110068
KTFP 161415Z AUTO 02007KT 10SM OVC035 11/07 A3016 RMK AO2 T01110066
KTFP 161355Z AUTO 03009KT 10SM OVC039 11/07 A3016 RMK AO2 T01090066
KTFP 161335Z AUTO 01007KT 10SM OVC039 11/07 A3017 RMK AO2 T01080066
KTFP 161315Z AUTO 03006KT 10SM BKN041 OVC055 11/07 A3018 RMK AO2 T01080066
KTFP 161255Z AUTO 03006KT 10SM SCT041 OVC055 11/07 A3016 RMK AO2 T01080067
KTFP 161235Z AUTO 03005KT 10SM BKN041 OVC055 11/07 A3017 RMK AO2 T01100067
KTFP 161215Z AUTO 03006KT 10SM SCT041 BKN065 OVC075 11/07 A3016 RMK AO2 T01080069
KTFP 161155Z AUTO 02005KT 10SM OVC065 11/07 A3017 RMK AO2 T01080070
KTFP 161135Z AUTO 03004KT 10SM OVC065 11/07 A3017 RMK AO2 T01080070
KTFP 161115Z AUTO 04003KT 10SM SCT044 OVC075 11/07 A3018 RMK AO2 T01090069
KTFP 161055Z AUTO 01004KT 10SM SCT045 OVC075 11/07 A3019 RMK AO2 T01080073
KTFP 161035Z AUTO 01005KT 10SM OVC075 11/08 A3019 RMK AO2 T01080081
KTFP 161015Z AUTO 00000KT 10SM SCT047 OVC075 11/09 A3021 RMK AO2 T01070085
KTFP 160955Z AUTO 01005KT 10SM SCT047 OVC075 11/08 A3020 RMK AO2 T01070084
KTFP 160935Z AUTO 36004KT 10SM OVC075 11/08 A3022 RMK AO2 T01070084
KTFP 160915Z AUTO 02003KT 10SM SCT050 OVC075 11/08 A3021 RMK AO2 T01070083
KTFP 160855Z AUTO 36003KT 10SM SCT050 OVC075 11/08 A3023 RMK AO2 T01070084
KTFP 160835Z AUTO 00000KT 10SM OVC050 11/08 A3023 RMK AO2 T01070084
KTFP 160815Z AUTO 35004KT 10SM BKN050 OVC080 11/09 A3023 RMK AO2 T01060085
KTFP 160755Z AUTO 01003KT 10SM SCT055 OVC080 11/09 A3023 RMK AO2 T01060086
KTFP 160735Z AUTO 36003KT 10SM SCT060 OVC090 11/09 A3023 RMK AO2 T01070087
KTFP 160715Z AUTO 00000KT 10SM SCT060 OVC090 11/09 A3024 RMK AO2 T01060087
KTFP 160655Z AUTO 00000KT 10SM BKN060 OVC090 11/08 A3025 RMK AO2 T01070084
KTFP 160615Z AUTO 33003KT 10SM OVC060 11/08 A3026 RMK AO2 T01060084
KTFP 160555Z AUTO 33006KT 10SM OVC070 11/09 A3026 RMK AO2 T01060085
KTFP 160535Z AUTO 32004KT 10SM OVC070 11/09 A3027 RMK AO2 T01050085
KTFP 160515Z AUTO 31003KT 10SM OVC070 11/09 A3028 RMK AO2 T01050085
KTFP 160455Z AUTO 32005KT 10SM OVC070 10/08 A3028 RMK AO2 T01040084
KTFP 160435Z AUTO 32003KT 10SM BKN070 OVC095 11/08 A3028 RMK AO2 T01050083
KTFP 160415Z AUTO 00000KT 10SM BKN070 OVC110 11/08 A3029 RMK AO2 T01050083
KTFP 160355Z AUTO 30004KT 10SM OVC110 11/08 A3029 RMK AO2 T01050082
KTFP 160335Z AUTO 29004KT 10SM SCT095 OVC120 11/08 A3030 RMK AO2 T01050076
KTFP 160315Z AUTO 29004KT 10SM OVC120 11/07 A3031 RMK AO2 T01050065
KTFP 160255Z AUTO 31005KT 10SM OVC110 11/07 A3030 RMK AO2 T01050065
KTFP 160235Z AUTO 29004KT 10SM SCT095 OVC110 10/07 A3030 RMK AO2 T01040074
KTFP 160215Z AUTO 30003KT 10SM OVC110 10/07 A3030 RMK AO2 T01040073
KTFP 160155Z AUTO 30003KT 10SM OVC110 10/07 A3030 RMK AO2 T01040074
KTFP 160135Z AUTO 30004KT 10SM OVC110 10/07 A3029 RMK AO2 T01020074
KTFP 160115Z AUTO 29004KT 10SM SCT110 10/08 A3029 RMK AO2 T01030080
KTFP 160055Z AUTO 00000KT 10SM SCT095 SCT110 10/08 A3028 RMK AO2 T01040081
KTFP 160035Z AUTO 00000KT 10SM SCT095 OVC110 11/08 A3027 RMK AO2 T01050083
KTFP 160015Z AUTO 00000KT 10SM SCT085 OVC120 11/08 A3027 RMK AO2 T01050078
KTFP 152355Z AUTO 00000KT 10SM -DZ SCT085 OVC110 11/07 A3028 RMK AO2 T01050072
KTFP 152335Z AUTO 00000KT 10SM -DZ SCT085 OVC110 11/07 A3027 RMK AO2 T01080066
KTFP 152315Z AUTO 00000KT 10SM -DZ OVC110 11/06 A3027 RMK AO2 T01100057
KTFP 152255Z AUTO 00000KT 10SM -DZ SCT075 BKN080 OVC110 11/06 A3027 RMK AO2 T01110057
KTFP 152235Z AUTO 00000KT 10SM -DZ SCT065 OVC085 11/06 A3027 RMK AO2 T01120058
KTFP 152215Z AUTO 00000KT 10SM OVC095 11/06 A3026 RMK AO2 T01110063
KTFP 152155Z AUTO 09003KT 10SM BKN095 OVC120 11/06 A3026 RMK AO2 T01100061
KTFP 152135Z AUTO 09004KT 10SM SCT039 SCT050 OVC120 11/07 A3026 RMK AO2 T01090066
KTFP 152115Z AUTO 08005KT 10SM SCT070 SCT085 OVC110 11/07 A3026 RMK AO2 T01100067
KTFP 152055Z AUTO 08004KT 10SM -RA SCT033 SCT044 BKN085 11/07 A3026 RMK AO2 T01100066
KTFP 152035Z AUTO 06004KT 10SM -RA SCT033 BKN044 OVC055 11/07 A3027 RMK AO2 T01100068
KTFP 152015Z AUTO 03003KT 10SM -RA SCT034 BKN050 OVC065 11/07 A3027 RMK AO2 T01100069
KTFP 151955Z AUTO 00000KT 10SM -DZ SCT031 BKN070 OVC080 11/06 A3029 RMK AO2 T01100061
KTFP 151935Z AUTO 36004KT 10SM -DZ SCT038 BKN070 OVC080 11/06 A3029 RMK AO2 T01080060
KTFP 151915Z AUTO 35003KT 10SM DZ SCT043 BKN055 OVC070 11/06 A3030 RMK AO2 T01100059
KTFP 151855Z AUTO 01005KT 10SM -DZ SCT035 BKN046 OVC075 11/06 A3030 RMK AO2 T01090057
KTFP 151835Z AUTO 36005KT 10SM -DZ SCT037 BKN075 OVC110 11/05 A3032 RMK AO2 T01070052
KTFP 151815Z AUTO 36004KT 10SM OVC110 10/05 A3033 RMK AO2 T01040047
KTFP 151755Z AUTO 02008KT 10SM OVC110 10/05 A3032 RMK AO2 T01020049
KTFP 151735Z AUTO 01009KT 10SM SCT047 SCT055 OVC110 10/06 A3032 RMK AO2 T01010055
KTFP 151715Z AUTO 02006KT 10SM -RA SCT034 BKN050 OVC110 10/06 A3032 RMK AO2 T00990062
KTFP 151655Z AUTO 36006KT 10SM -DZ SCT050 BKN060 OVC110 09/06 A3032 RMK AO2 T00940059
KTFP 151635Z AUTO 01009KT 10SM -DZ BKN060 BKN070 OVC100 09/06 A3031 RMK AO2 T00900059
KTFP 151615Z AUTO 01008KT 10SM RA BKN060 BKN070 OVC100 09/06 A3030 RMK AO2 T00880058
KTFP 151555Z AUTO 01009KT 10SM RA SCT045 BKN070 OVC100 09/06 A3029 RMK AO2 T00870056
KTFP 151535Z AUTO 36009KT 10SM RA SCT070 SCT085 OVC110 09/06 A3029 RMK AO2 T00870055
KTFP 151515Z AUTO 36009KT 10SM OVC110 09/06 A3027 RMK AO2 T00870056
KTFP 151455Z AUTO 36007KT 10SM -DZ SCT055 BKN080 OVC110 09/06 A3027 RMK AO2 T00860057
KTFP 151435Z AUTO 35010G14KT 10SM -DZ SCT034 BKN055 OVC070 09/06 A3026 RMK AO2 T00860058
KTFP 151415Z AUTO 35012G19KT 10SM RA SCT055 BKN070 OVC095 09/06 A3025 RMK AO2 T00860055
KTFP 151355Z AUTO 35012KT 10SM -RA OVC095 09/05 A3024 RMK AO2 T00890054
KTFP 151335Z AUTO 36011G15KT 10SM -DZ SCT065 BKN095 OVC110 09/05 A3022 RMK AO2 T00930053
KTFP 151315Z AUTO 35012KT 10SM DZ SCT065 BKN085 OVC100 10/05 A3021 RMK AO2 T00960052
KTFP 151255Z AUTO 35012KT 10SM -DZ SCT085 OVC100 10/05 A3020 RMK AO2 T00980051
KTFP 151235Z AUTO 35013KT 10SM -DZ SCT085 OVC110 10/06 A3019 RMK AO2 T00990057
KTFP 151215Z AUTO 35011KT 10SM -DZ BKN085 OVC110 10/06 A3018 RMK AO2 T01000058
KTFP 151155Z AUTO 35012KT 10SM -DZ BKN090 OVC110 10/06 A3018 RMK AO2 T01000061
KTFP 151135Z AUTO 35010KT 10SM RA SCT065 BKN080 OVC110 10/06 A3017 RMK AO2 T01010063
KTFP 151115Z AUTO 35009KT 10SM RA SCT070 OVC075 10/07 A3016 RMK AO2 T01030069
KTFP 151055Z AUTO 36008KT 10SM DZ BKN070 OVC095 11/07 A3016 RMK AO2 T01050071
KTFP 151035Z AUTO 36008KT 10SM -RA OVC070 11/07 A3015 RMK AO2 T01050072
KTFP 151015Z AUTO 36010KT 10SM -RA BKN060 OVC100 11/08 A3015 RMK AO2 T01070075
KTFP 150955Z AUTO 35009KT 10SM -RA SCT050 BKN060 OVC100 11/08 A3015 RMK AO2 T01090079
KTFP 150935Z AUTO 36009KT 10SM -RA SCT050 BKN055 OVC090 11/08 A3015 RMK AO2 T01110081
KTFP 150915Z AUTO 36008KT 10SM -RA BKN075 OVC090 11/08 A3015 RMK AO2 T01130084
KTFP 150855Z AUTO 36010KT 10SM -RA BKN075 OVC100 12/09 A3014 RMK AO2 T01170085
KTFP 150835Z AUTO 35011KT 10SM DZ SCT085 OVC100 12/09 A3013 RMK AO2 T01200088
KTFP 150815Z AUTO 36011G17KT 10SM -RA BKN085 OVC100 12/09 A3012 RMK AO2 T01230090
KTFP 150755Z AUTO 36011KT 10SM -RA OVC095 13/09 A3010 RMK AO2 T01260091
KTFP 150735Z AUTO 36008KT 10SM RA SCT047 OVC095 13/09 A3010 RMK AO2 T01310092
KTFP 150715Z AUTO 36006KT 10SM -RA SCT045 OVC095 13/09 A3010 RMK AO2 T01340091
KTFP 150655Z AUTO 01007KT 10SM -RA SCT047 OVC095 13/09 A3009 RMK AO2 T01330094
KTFP 150635Z AUTO 02007KT 10SM -RA BKN047 BKN070 OVC095 13/10 A3009 RMK AO2 T01340095